<?xml version="1.0" encoding="UTF-8" standalone="no" ?>
<gpx xmlns="http://www.topografix.com/GPX/1/1" xmlns:xsi="http://www.w3.org/2001/XMLSchema-instance" xsi:schemaLocation="http://www.topografix.com/GPX/1/1 http://www.topografix.com/GPX/1/1/gpx.xsd" version="1.1" creator="VisuGPX - https://www.visugpx.com">
  <metadata>
    <name>Via podiensis Le Puy-Cahors</name>
  </metadata>
  <trk>
    <name><![CDATA[Via podiensis Le Puy-Cahors_4]]></name>
    <trkseg>
      <trkpt lat="44.60744" lon="2.03105">
        <ele>196</ele>
        <time>2012-06-07T19:25:21Z</time>
      </trkpt>
      <trkpt lat="44.60683" lon="2.03087">
        <ele>194.59375</ele>
        <time>2012-06-07T19:25:41Z</time>
      </trkpt>
      <trkpt lat="44.60681" lon="2.03124">
        <ele>195</ele>
        <time>2012-06-07T19:26:01Z</time>
      </trkpt>
      <trkpt lat="44.60613" lon="2.03094">
        <ele>198.4140625</ele>
        <time>2012-06-07T19:26:21Z</time>
      </trkpt>
      <trkpt lat="44.60598" lon="2.03051">
        <ele>199.9375</ele>
        <time>2012-06-07T19:26:41Z</time>
      </trkpt>
      <trkpt lat="44.60601" lon="2.0298">
        <ele>198.5703125</ele>
        <time>2012-06-07T19:27:01Z</time>
      </trkpt>
      <trkpt lat="44.60574" lon="2.02983">
        <ele>202.12890625</ele>
        <time>2012-06-07T19:27:21Z</time>
      </trkpt>
      <trkpt lat="44.60574" lon="2.02839">
        <ele>202.90625</ele>
        <time>2012-06-07T19:27:41Z</time>
      </trkpt>
      <trkpt lat="44.60561" lon="2.02787">
        <ele>205.5625</ele>
        <time>2012-06-07T19:28:01Z</time>
      </trkpt>
      <trkpt lat="44.60521" lon="2.028">
        <ele>215.16796875</ele>
        <time>2012-06-07T19:28:21Z</time>
      </trkpt>
      <trkpt lat="44.60508" lon="2.02749">
        <ele>219.03125</ele>
        <time>2012-06-07T19:28:41Z</time>
      </trkpt>
      <trkpt lat="44.60483" lon="2.0257">
        <ele>229.1171875</ele>
        <time>2012-06-07T19:29:01Z</time>
      </trkpt>
      <trkpt lat="44.60447" lon="2.025">
        <ele>241.37890625</ele>
        <time>2012-06-07T19:29:21Z</time>
      </trkpt>
      <trkpt lat="44.60393" lon="2.02489">
        <ele>261.37109375</ele>
        <time>2012-06-07T19:29:41Z</time>
      </trkpt>
      <trkpt lat="44.60384" lon="2.0236">
        <ele>255.6796875</ele>
        <time>2012-06-07T19:30:01Z</time>
      </trkpt>
      <trkpt lat="44.60358" lon="2.023">
        <ele>255.69140625</ele>
        <time>2012-06-07T19:30:21Z</time>
      </trkpt>
      <trkpt lat="44.60322" lon="2.02257">
        <ele>259.38671875</ele>
        <time>2012-06-07T19:30:41Z</time>
      </trkpt>
      <trkpt lat="44.60341" lon="2.02378">
        <ele>280.16015625</ele>
        <time>2012-06-07T19:31:01Z</time>
      </trkpt>
      <trkpt lat="44.60328" lon="2.02453">
        <ele>293.59375</ele>
        <time>2012-06-07T19:31:21Z</time>
      </trkpt>
      <trkpt lat="44.603" lon="2.02485">
        <ele>303.8359375</ele>
        <time>2012-06-07T19:31:41Z</time>
      </trkpt>
      <trkpt lat="44.60344" lon="2.02579">
        <ele>291.8984375</ele>
        <time>2012-06-07T19:32:01Z</time>
      </trkpt>
      <trkpt lat="44.60319" lon="2.02678">
        <ele>299.8359375</ele>
        <time>2012-06-07T19:32:21Z</time>
      </trkpt>
      <trkpt lat="44.60272" lon="2.02761">
        <ele>313.046875</ele>
        <time>2012-06-07T19:32:41Z</time>
      </trkpt>
      <trkpt lat="44.6023" lon="2.02809">
        <ele>322.0390625</ele>
        <time>2012-06-07T19:33:01Z</time>
      </trkpt>
      <trkpt lat="44.60182" lon="2.02881">
        <ele>326.53125</ele>
        <time>2012-06-07T19:33:21Z</time>
      </trkpt>
      <trkpt lat="44.60143" lon="2.02909">
        <ele>332.0859375</ele>
        <time>2012-06-07T19:33:41Z</time>
      </trkpt>
      <trkpt lat="44.60085" lon="2.02994">
        <ele>339.22265625</ele>
        <time>2012-06-07T19:34:01Z</time>
      </trkpt>
      <trkpt lat="44.60041" lon="2.02968">
        <ele>341.01953125</ele>
        <time>2012-06-07T19:34:21Z</time>
      </trkpt>
      <trkpt lat="44.59992" lon="2.02915">
        <ele>339.40234375</ele>
        <time>2012-06-07T19:34:41Z</time>
      </trkpt>
      <trkpt lat="44.59765" lon="2.02899">
        <ele>344.109375</ele>
        <time>2012-06-07T19:35:01Z</time>
      </trkpt>
      <trkpt lat="44.59791" lon="2.02976">
        <ele>348.76953125</ele>
        <time>2012-06-07T19:35:21Z</time>
      </trkpt>
      <trkpt lat="44.59828" lon="2.03043">
        <ele>354.265625</ele>
        <time>2012-06-07T19:35:41Z</time>
      </trkpt>
      <trkpt lat="44.59848" lon="2.03136">
        <ele>358.06640625</ele>
        <time>2012-06-07T19:36:01Z</time>
      </trkpt>
      <trkpt lat="44.59811" lon="2.03248">
        <ele>353.92578125</ele>
        <time>2012-06-07T19:36:21Z</time>
      </trkpt>
      <trkpt lat="44.59759" lon="2.03289">
        <ele>346.28125</ele>
        <time>2012-06-07T19:36:41Z</time>
      </trkpt>
      <trkpt lat="44.59733" lon="2.03292">
        <ele>346.03125</ele>
        <time>2012-06-07T19:37:01Z</time>
      </trkpt>
      <trkpt lat="44.59692" lon="2.03252">
        <ele>347.54296875</ele>
        <time>2012-06-07T19:37:21Z</time>
      </trkpt>
      <trkpt lat="44.59644" lon="2.0327">
        <ele>349</ele>
        <time>2012-06-07T19:37:41Z</time>
      </trkpt>
      <trkpt lat="44.59617" lon="2.03305">
        <ele>350.3984375</ele>
        <time>2012-06-07T19:38:01Z</time>
      </trkpt>
      <trkpt lat="44.5962" lon="2.03529">
        <ele>346.390625</ele>
        <time>2012-06-07T19:38:21Z</time>
      </trkpt>
      <trkpt lat="44.59583" lon="2.03516">
        <ele>351.96875</ele>
        <time>2012-06-07T19:38:41Z</time>
      </trkpt>
      <trkpt lat="44.59523" lon="2.03443">
        <ele>353.375</ele>
        <time>2012-06-07T19:39:01Z</time>
      </trkpt>
      <trkpt lat="44.59493" lon="2.03373">
        <ele>352.453125</ele>
        <time>2012-06-07T19:39:21Z</time>
      </trkpt>
      <trkpt lat="44.5933" lon="2.03315">
        <ele>350.85546875</ele>
        <time>2012-06-07T19:39:41Z</time>
      </trkpt>
      <trkpt lat="44.59327" lon="2.03278">
        <ele>350.4296875</ele>
        <time>2012-06-07T19:40:01Z</time>
      </trkpt>
      <trkpt lat="44.59293" lon="2.03228">
        <ele>351.65234375</ele>
        <time>2012-06-07T19:40:21Z</time>
      </trkpt>
      <trkpt lat="44.59248" lon="2.03137">
        <ele>351.390625</ele>
        <time>2012-06-07T19:40:41Z</time>
      </trkpt>
      <trkpt lat="44.59177" lon="2.03046">
        <ele>347.10546875</ele>
        <time>2012-06-07T19:41:01Z</time>
      </trkpt>
      <trkpt lat="44.59151" lon="2.02987">
        <ele>345.5234375</ele>
        <time>2012-06-07T19:41:21Z</time>
      </trkpt>
      <trkpt lat="44.59145" lon="2.0293">
        <ele>344.734375</ele>
        <time>2012-06-07T19:41:41Z</time>
      </trkpt>
      <trkpt lat="44.59094" lon="2.02766">
        <ele>346.0234375</ele>
        <time>2012-06-07T19:42:01Z</time>
      </trkpt>
      <trkpt lat="44.59102" lon="2.02589">
        <ele>346.07421875</ele>
        <time>2012-06-07T19:42:21Z</time>
      </trkpt>
      <trkpt lat="44.59161" lon="2.0235">
        <ele>343.8046875</ele>
        <time>2012-06-07T19:42:41Z</time>
      </trkpt>
      <trkpt lat="44.59192" lon="2.02197">
        <ele>348.203125</ele>
        <time>2012-06-07T19:43:01Z</time>
      </trkpt>
      <trkpt lat="44.59189" lon="2.02151">
        <ele>349.7421875</ele>
        <time>2012-06-07T19:43:21Z</time>
      </trkpt>
      <trkpt lat="44.59109" lon="2.01913">
        <ele>350.40234375</ele>
        <time>2012-06-07T19:43:41Z</time>
      </trkpt>
      <trkpt lat="44.59071" lon="2.0188">
        <ele>350.94140625</ele>
        <time>2012-06-07T19:44:01Z</time>
      </trkpt>
      <trkpt lat="44.58971" lon="2.01818">
        <ele>349.77734375</ele>
        <time>2012-06-07T19:44:21Z</time>
      </trkpt>
      <trkpt lat="44.58939" lon="2.01787">
        <ele>348.91796875</ele>
        <time>2012-06-07T19:44:41Z</time>
      </trkpt>
      <trkpt lat="44.58763" lon="2.01711">
        <ele>345</ele>
        <time>2012-06-07T19:45:01Z</time>
      </trkpt>
      <trkpt lat="44.58687" lon="2.01669">
        <ele>348.703125</ele>
        <time>2012-06-07T19:45:21Z</time>
      </trkpt>
      <trkpt lat="44.58567" lon="2.01488">
        <ele>343.75</ele>
        <time>2012-06-07T19:45:41Z</time>
      </trkpt>
      <trkpt lat="44.58481" lon="2.01395">
        <ele>332.0703125</ele>
        <time>2012-06-07T19:46:01Z</time>
      </trkpt>
      <trkpt lat="44.5844" lon="2.01361">
        <ele>325.0859375</ele>
        <time>2012-06-07T19:46:21Z</time>
      </trkpt>
      <trkpt lat="44.58432" lon="2.0128">
        <ele>315.3359375</ele>
        <time>2012-06-07T19:46:41Z</time>
      </trkpt>
      <trkpt lat="44.58402" lon="2.01229">
        <ele>307.4765625</ele>
        <time>2012-06-07T19:47:01Z</time>
      </trkpt>
      <trkpt lat="44.58324" lon="2.01173">
        <ele>306.5390625</ele>
        <time>2012-06-07T19:47:21Z</time>
      </trkpt>
      <trkpt lat="44.5822" lon="2.01093">
        <ele>317.390625</ele>
        <time>2012-06-07T19:47:41Z</time>
      </trkpt>
      <trkpt lat="44.58113" lon="2.01062">
        <ele>316.796875</ele>
        <time>2012-06-07T19:48:01Z</time>
      </trkpt>
      <trkpt lat="44.58027" lon="2.01013">
        <ele>319.70703125</ele>
        <time>2012-06-07T19:48:21Z</time>
      </trkpt>
      <trkpt lat="44.57949" lon="2.00928">
        <ele>327.1171875</ele>
        <time>2012-06-07T19:48:41Z</time>
      </trkpt>
      <trkpt lat="44.57891" lon="2.00809">
        <ele>331.671875</ele>
        <time>2012-06-07T19:49:01Z</time>
      </trkpt>
      <trkpt lat="44.57841" lon="2.0078">
        <ele>336.2734375</ele>
        <time>2012-06-07T19:49:21Z</time>
      </trkpt>
      <trkpt lat="44.57746" lon="2.00698">
        <ele>331.48046875</ele>
        <time>2012-06-07T19:49:41Z</time>
      </trkpt>
      <trkpt lat="44.57702" lon="2.00631">
        <ele>330.0390625</ele>
        <time>2012-06-07T19:50:01Z</time>
      </trkpt>
      <trkpt lat="44.57674" lon="2.00561">
        <ele>330.421875</ele>
        <time>2012-06-07T19:50:21Z</time>
      </trkpt>
      <trkpt lat="44.5764" lon="2.00536">
        <ele>335.35546875</ele>
        <time>2012-06-07T19:50:41Z</time>
      </trkpt>
      <trkpt lat="44.57606" lon="2.00491">
        <ele>336.84765625</ele>
        <time>2012-06-07T19:51:01Z</time>
      </trkpt>
      <trkpt lat="44.57554" lon="2.00317">
        <ele>336.55078125</ele>
        <time>2012-06-07T19:51:21Z</time>
      </trkpt>
      <trkpt lat="44.57514" lon="2.00203">
        <ele>340.65625</ele>
        <time>2012-06-07T19:51:41Z</time>
      </trkpt>
      <trkpt lat="44.57515" lon="2.00117">
        <ele>337.765625</ele>
        <time>2012-06-07T19:52:01Z</time>
      </trkpt>
      <trkpt lat="44.57577" lon="2.00031">
        <ele>327.30078125</ele>
        <time>2012-06-07T19:52:21Z</time>
      </trkpt>
      <trkpt lat="44.5761" lon="1.99952">
        <ele>324.3984375</ele>
        <time>2012-06-07T19:52:41Z</time>
      </trkpt>
      <trkpt lat="44.5763" lon="1.99849">
        <ele>320.73046875</ele>
        <time>2012-06-07T19:53:01Z</time>
      </trkpt>
      <trkpt lat="44.57627" lon="1.99769">
        <ele>320.26953125</ele>
        <time>2012-06-07T19:53:21Z</time>
      </trkpt>
      <trkpt lat="44.57567" lon="1.99616">
        <ele>325.2421875</ele>
        <time>2012-06-07T19:53:41Z</time>
      </trkpt>
      <trkpt lat="44.57499" lon="1.99501">
        <ele>325.390625</ele>
        <time>2012-06-07T19:54:01Z</time>
      </trkpt>
      <trkpt lat="44.5732" lon="1.99337">
        <ele>319.2421875</ele>
        <time>2012-06-07T19:54:21Z</time>
      </trkpt>
      <trkpt lat="44.57256" lon="1.99298">
        <ele>321.2421875</ele>
        <time>2012-06-07T19:54:41Z</time>
      </trkpt>
      <trkpt lat="44.57184" lon="1.99214">
        <ele>325.4921875</ele>
        <time>2012-06-07T19:55:01Z</time>
      </trkpt>
      <trkpt lat="44.57093" lon="1.99207">
        <ele>334.3203125</ele>
        <time>2012-06-07T19:55:21Z</time>
      </trkpt>
      <trkpt lat="44.5704" lon="1.99181">
        <ele>337.3671875</ele>
        <time>2012-06-07T19:55:41Z</time>
      </trkpt>
      <trkpt lat="44.56893" lon="1.99053">
        <ele>328.44140625</ele>
        <time>2012-06-07T19:56:01Z</time>
      </trkpt>
      <trkpt lat="44.56817" lon="1.99011">
        <ele>322.5</ele>
        <time>2012-06-07T19:56:21Z</time>
      </trkpt>
      <trkpt lat="44.56724" lon="1.98856">
        <ele>313.3125</ele>
        <time>2012-06-07T19:56:41Z</time>
      </trkpt>
      <trkpt lat="44.56694" lon="1.98828">
        <ele>314.21875</ele>
        <time>2012-06-07T19:57:01Z</time>
      </trkpt>
      <trkpt lat="44.56661" lon="1.98812">
        <ele>315.3828125</ele>
        <time>2012-06-07T19:57:21Z</time>
      </trkpt>
      <trkpt lat="44.56572" lon="1.98799">
        <ele>315.60546875</ele>
        <time>2012-06-07T19:57:41Z</time>
      </trkpt>
      <trkpt lat="44.56445" lon="1.98789">
        <ele>308.1875</ele>
        <time>2012-06-07T19:58:01Z</time>
      </trkpt>
      <trkpt lat="44.56442" lon="1.98773">
        <ele>307.80859375</ele>
        <time>2012-06-07T19:58:21Z</time>
      </trkpt>
      <trkpt lat="44.56487" lon="1.98725">
        <ele>318.46875</ele>
        <time>2012-06-07T19:58:41Z</time>
      </trkpt>
      <trkpt lat="44.5651" lon="1.98654">
        <ele>322.42578125</ele>
        <time>2012-06-07T19:59:01Z</time>
      </trkpt>
      <trkpt lat="44.56533" lon="1.98506">
        <ele>324.94921875</ele>
        <time>2012-06-07T19:59:21Z</time>
      </trkpt>
      <trkpt lat="44.56524" lon="1.98457">
        <ele>325.30078125</ele>
        <time>2012-06-07T19:59:41Z</time>
      </trkpt>
      <trkpt lat="44.56524" lon="1.98341">
        <ele>328.73046875</ele>
        <time>2012-06-07T20:00:01Z</time>
      </trkpt>
      <trkpt lat="44.56561" lon="1.98277">
        <ele>338.2890625</ele>
        <time>2012-06-07T20:00:21Z</time>
      </trkpt>
      <trkpt lat="44.5655" lon="1.98212">
        <ele>337.203125</ele>
        <time>2012-06-07T20:00:41Z</time>
      </trkpt>
      <trkpt lat="44.56554" lon="1.9792">
        <ele>345.93359375</ele>
        <time>2012-06-07T20:01:01Z</time>
      </trkpt>
      <trkpt lat="44.56564" lon="1.97872">
        <ele>344.9140625</ele>
        <time>2012-06-07T20:01:21Z</time>
      </trkpt>
      <trkpt lat="44.5664" lon="1.9769">
        <ele>341.26953125</ele>
        <time>2012-06-07T20:01:41Z</time>
      </trkpt>
      <trkpt lat="44.56739" lon="1.9756">
        <ele>339.4453125</ele>
        <time>2012-06-07T20:02:01Z</time>
      </trkpt>
      <trkpt lat="44.5685" lon="1.97371">
        <ele>334.00390625</ele>
        <time>2012-06-07T20:02:21Z</time>
      </trkpt>
      <trkpt lat="44.56965" lon="1.96953">
        <ele>329.0703125</ele>
        <time>2012-06-07T20:02:41Z</time>
      </trkpt>
      <trkpt lat="44.56984" lon="1.968">
        <ele>332.6953125</ele>
        <time>2012-06-07T20:03:01Z</time>
      </trkpt>
      <trkpt lat="44.57007" lon="1.96767">
        <ele>332.9921875</ele>
        <time>2012-06-07T20:03:21Z</time>
      </trkpt>
      <trkpt lat="44.57081" lon="1.96711">
        <ele>331.9140625</ele>
        <time>2012-06-07T20:03:41Z</time>
      </trkpt>
      <trkpt lat="44.57214" lon="1.96488">
        <ele>330</ele>
        <time>2012-06-07T20:04:01Z</time>
      </trkpt>
      <trkpt lat="44.5725" lon="1.96336">
        <ele>328</ele>
        <time>2012-06-07T20:04:21Z</time>
      </trkpt>
      <trkpt lat="44.57346" lon="1.96219">
        <ele>328.8046875</ele>
        <time>2012-06-07T20:04:41Z</time>
      </trkpt>
      <trkpt lat="44.57369" lon="1.96172">
        <ele>328.4375</ele>
        <time>2012-06-07T20:05:01Z</time>
      </trkpt>
      <trkpt lat="44.57381" lon="1.96092">
        <ele>329.69140625</ele>
        <time>2012-06-07T20:05:21Z</time>
      </trkpt>
      <trkpt lat="44.57368" lon="1.96072">
        <ele>330</ele>
        <time>2012-06-07T20:05:41Z</time>
      </trkpt>
      <trkpt lat="44.57352" lon="1.95949">
        <ele>325.703125</ele>
        <time>2012-06-07T20:06:01Z</time>
      </trkpt>
      <trkpt lat="44.57368" lon="1.95779">
        <ele>320.984375</ele>
        <time>2012-06-07T20:06:21Z</time>
      </trkpt>
      <trkpt lat="44.57379" lon="1.95632">
        <ele>320.59375</ele>
        <time>2012-06-07T20:06:41Z</time>
      </trkpt>
      <trkpt lat="44.57388" lon="1.95608">
        <ele>320.8671875</ele>
        <time>2012-06-07T20:07:01Z</time>
      </trkpt>
      <trkpt lat="44.57547" lon="1.95491">
        <ele>317</ele>
        <time>2012-06-07T20:07:21Z</time>
      </trkpt>
      <trkpt lat="44.57579" lon="1.95477">
        <ele>317</ele>
        <time>2012-06-07T20:07:41Z</time>
      </trkpt>
      <trkpt lat="44.57612" lon="1.95437">
        <ele>315.2109375</ele>
        <time>2012-06-07T20:08:01Z</time>
      </trkpt>
      <trkpt lat="44.57666" lon="1.95483">
        <ele>310.546875</ele>
        <time>2012-06-07T20:08:21Z</time>
      </trkpt>
      <trkpt lat="44.57684" lon="1.95468">
        <ele>308.734375</ele>
        <time>2012-06-07T20:08:41Z</time>
      </trkpt>
      <trkpt lat="44.57682" lon="1.95414">
        <ele>311.80078125</ele>
        <time>2012-06-07T20:09:01Z</time>
      </trkpt>
      <trkpt lat="44.57695" lon="1.95356">
        <ele>311.65234375</ele>
        <time>2012-06-07T20:09:21Z</time>
      </trkpt>
      <trkpt lat="44.57691" lon="1.95277">
        <ele>311.4296875</ele>
        <time>2012-06-07T20:09:41Z</time>
      </trkpt>
      <trkpt lat="44.57744" lon="1.95157">
        <ele>309.48046875</ele>
        <time>2012-06-07T20:10:01Z</time>
      </trkpt>
      <trkpt lat="44.5782" lon="1.95028">
        <ele>317.81640625</ele>
        <time>2012-06-07T20:10:21Z</time>
      </trkpt>
      <trkpt lat="44.57856" lon="1.94995">
        <ele>319.515625</ele>
        <time>2012-06-07T20:10:41Z</time>
      </trkpt>
      <trkpt lat="44.57887" lon="1.94989">
        <ele>316.23828125</ele>
        <time>2012-06-07T20:11:01Z</time>
      </trkpt>
      <trkpt lat="44.57882" lon="1.94963">
        <ele>317.94921875</ele>
        <time>2012-06-07T20:11:21Z</time>
      </trkpt>
      <trkpt lat="44.57836" lon="1.9488">
        <ele>325.1171875</ele>
        <time>2012-06-07T20:11:41Z</time>
      </trkpt>
      <trkpt lat="44.57804" lon="1.94789">
        <ele>327.33984375</ele>
        <time>2012-06-07T20:12:01Z</time>
      </trkpt>
      <trkpt lat="44.57793" lon="1.94658">
        <ele>333.765625</ele>
        <time>2012-06-07T20:12:21Z</time>
      </trkpt>
      <trkpt lat="44.57797" lon="1.94628">
        <ele>335.04296875</ele>
        <time>2012-06-07T20:12:41Z</time>
      </trkpt>
      <trkpt lat="44.57771" lon="1.94518">
        <ele>336.2421875</ele>
        <time>2012-06-07T20:13:01Z</time>
      </trkpt>
      <trkpt lat="44.57719" lon="1.94345">
        <ele>329.7734375</ele>
        <time>2012-06-07T20:13:21Z</time>
      </trkpt>
      <trkpt lat="44.57717" lon="1.94283">
        <ele>324.04296875</ele>
        <time>2012-06-07T20:13:41Z</time>
      </trkpt>
      <trkpt lat="44.57727" lon="1.94274">
        <ele>320.62109375</ele>
        <time>2012-06-07T20:14:01Z</time>
      </trkpt>
      <trkpt lat="44.57684" lon="1.94191">
        <ele>323.79296875</ele>
        <time>2012-06-07T20:14:21Z</time>
      </trkpt>
      <trkpt lat="44.57644" lon="1.94149">
        <ele>325.8984375</ele>
        <time>2012-06-07T20:14:41Z</time>
      </trkpt>
      <trkpt lat="44.5761" lon="1.94043">
        <ele>316.69921875</ele>
        <time>2012-06-07T20:15:01Z</time>
      </trkpt>
      <trkpt lat="44.57547" lon="1.94001">
        <ele>314.03125</ele>
        <time>2012-06-07T20:15:21Z</time>
      </trkpt>
      <trkpt lat="44.57505" lon="1.94011">
        <ele>313.375</ele>
        <time>2012-06-07T20:15:41Z</time>
      </trkpt>
      <trkpt lat="44.57501" lon="1.93934">
        <ele>304.25</ele>
        <time>2012-06-07T20:16:01Z</time>
      </trkpt>
      <trkpt lat="44.57382" lon="1.9373">
        <ele>299.484375</ele>
        <time>2012-06-07T20:16:21Z</time>
      </trkpt>
      <trkpt lat="44.57363" lon="1.93686">
        <ele>301.3671875</ele>
        <time>2012-06-07T20:16:41Z</time>
      </trkpt>
      <trkpt lat="44.57335" lon="1.93689">
        <ele>303.296875</ele>
        <time>2012-06-07T20:17:01Z</time>
      </trkpt>
      <trkpt lat="44.5725" lon="1.93568">
        <ele>319.0546875</ele>
        <time>2012-06-07T20:17:21Z</time>
      </trkpt>
      <trkpt lat="44.57215" lon="1.9354">
        <ele>323.10546875</ele>
        <time>2012-06-07T20:17:41Z</time>
      </trkpt>
      <trkpt lat="44.57075" lon="1.93483">
        <ele>320.125</ele>
        <time>2012-06-07T20:18:01Z</time>
      </trkpt>
      <trkpt lat="44.57023" lon="1.93494">
        <ele>318.4140625</ele>
        <time>2012-06-07T20:18:21Z</time>
      </trkpt>
      <trkpt lat="44.56959" lon="1.93465">
        <ele>321.71484375</ele>
        <time>2012-06-07T20:18:41Z</time>
      </trkpt>
      <trkpt lat="44.56892" lon="1.93416">
        <ele>328.05859375</ele>
        <time>2012-06-07T20:19:01Z</time>
      </trkpt>
      <trkpt lat="44.56839" lon="1.93411">
        <ele>332.05078125</ele>
        <time>2012-06-07T20:19:21Z</time>
      </trkpt>
      <trkpt lat="44.56707" lon="1.93315">
        <ele>345.734375</ele>
        <time>2012-06-07T20:19:41Z</time>
      </trkpt>
      <trkpt lat="44.56643" lon="1.93273">
        <ele>349.90234375</ele>
        <time>2012-06-07T20:20:01Z</time>
      </trkpt>
      <trkpt lat="44.56606" lon="1.93267">
        <ele>350.32421875</ele>
        <time>2012-06-07T20:20:21Z</time>
      </trkpt>
      <trkpt lat="44.56565" lon="1.9328">
        <ele>350.27734375</ele>
        <time>2012-06-07T20:20:41Z</time>
      </trkpt>
      <trkpt lat="44.5654" lon="1.93187">
        <ele>355.0546875</ele>
        <time>2012-06-07T20:21:01Z</time>
      </trkpt>
      <trkpt lat="44.56465" lon="1.92982">
        <ele>370.31640625</ele>
        <time>2012-06-07T20:21:21Z</time>
      </trkpt>
      <trkpt lat="44.56422" lon="1.92868">
        <ele>381.109375</ele>
        <time>2012-06-07T20:21:41Z</time>
      </trkpt>
      <trkpt lat="44.56376" lon="1.92814">
        <ele>381.05078125</ele>
        <time>2012-06-07T20:22:01Z</time>
      </trkpt>
      <trkpt lat="44.56319" lon="1.92774">
        <ele>377.40234375</ele>
        <time>2012-06-07T20:22:21Z</time>
      </trkpt>
      <trkpt lat="44.56173" lon="1.92509">
        <ele>369.5625</ele>
        <time>2012-06-07T20:22:41Z</time>
      </trkpt>
      <trkpt lat="44.56136" lon="1.92444">
        <ele>370.44921875</ele>
        <time>2012-06-07T20:23:01Z</time>
      </trkpt>
      <trkpt lat="44.56128" lon="1.92355">
        <ele>372.66015625</ele>
        <time>2012-06-07T20:23:21Z</time>
      </trkpt>
      <trkpt lat="44.56062" lon="1.92203">
        <ele>371.32421875</ele>
        <time>2012-06-07T20:23:41Z</time>
      </trkpt>
      <trkpt lat="44.56031" lon="1.92168">
        <ele>367.484375</ele>
        <time>2012-06-07T20:24:01Z</time>
      </trkpt>
      <trkpt lat="44.56004" lon="1.92089">
        <ele>362.828125</ele>
        <time>2012-06-07T20:24:21Z</time>
      </trkpt>
      <trkpt lat="44.56" lon="1.91968">
        <ele>362.93359375</ele>
        <time>2012-06-07T20:24:41Z</time>
      </trkpt>
      <trkpt lat="44.5594" lon="1.91728">
        <ele>352.8671875</ele>
        <time>2012-06-07T20:25:01Z</time>
      </trkpt>
      <trkpt lat="44.55932" lon="1.91642">
        <ele>351.76953125</ele>
        <time>2012-06-07T20:25:21Z</time>
      </trkpt>
      <trkpt lat="44.55906" lon="1.91735">
        <ele>349.89453125</ele>
        <time>2012-06-07T20:25:41Z</time>
      </trkpt>
      <trkpt lat="44.55874" lon="1.91769">
        <ele>348.921875</ele>
        <time>2012-06-07T20:26:01Z</time>
      </trkpt>
      <trkpt lat="44.55831" lon="1.91785">
        <ele>348.80859375</ele>
        <time>2012-06-07T20:26:21Z</time>
      </trkpt>
      <trkpt lat="44.55708" lon="1.91797">
        <ele>354.58203125</ele>
        <time>2012-06-07T20:26:41Z</time>
      </trkpt>
      <trkpt lat="44.55633" lon="1.9169">
        <ele>351.0625</ele>
        <time>2012-06-07T20:27:01Z</time>
      </trkpt>
      <trkpt lat="44.55607" lon="1.9163">
        <ele>348.61328125</ele>
        <time>2012-06-07T20:27:21Z</time>
      </trkpt>
      <trkpt lat="44.5547" lon="1.91424">
        <ele>342.4765625</ele>
        <time>2012-06-07T20:27:41Z</time>
      </trkpt>
      <trkpt lat="44.55469" lon="1.91405">
        <ele>341.78125</ele>
        <time>2012-06-07T20:28:01Z</time>
      </trkpt>
      <trkpt lat="44.55417" lon="1.91346">
        <ele>338.65625</ele>
        <time>2012-06-07T20:28:21Z</time>
      </trkpt>
      <trkpt lat="44.55372" lon="1.91245">
        <ele>336.0234375</ele>
        <time>2012-06-07T20:28:41Z</time>
      </trkpt>
      <trkpt lat="44.55343" lon="1.91108">
        <ele>333.08203125</ele>
        <time>2012-06-07T20:29:01Z</time>
      </trkpt>
      <trkpt lat="44.55345" lon="1.91008">
        <ele>335.75</ele>
        <time>2012-06-07T20:29:21Z</time>
      </trkpt>
      <trkpt lat="44.55323" lon="1.90878">
        <ele>339.9375</ele>
        <time>2012-06-07T20:29:41Z</time>
      </trkpt>
      <trkpt lat="44.5522" lon="1.90673">
        <ele>336.23828125</ele>
        <time>2012-06-07T20:30:01Z</time>
      </trkpt>
      <trkpt lat="44.55115" lon="1.90516">
        <ele>330.73046875</ele>
        <time>2012-06-07T20:30:21Z</time>
      </trkpt>
      <trkpt lat="44.55026" lon="1.90357">
        <ele>321.32421875</ele>
        <time>2012-06-07T20:30:41Z</time>
      </trkpt>
      <trkpt lat="44.55012" lon="1.90314">
        <ele>320.30859375</ele>
        <time>2012-06-07T20:31:01Z</time>
      </trkpt>
      <trkpt lat="44.54981" lon="1.90273">
        <ele>319.04296875</ele>
        <time>2012-06-07T20:31:21Z</time>
      </trkpt>
      <trkpt lat="44.54905" lon="1.902">
        <ele>320.71875</ele>
        <time>2012-06-07T20:31:41Z</time>
      </trkpt>
      <trkpt lat="44.54834" lon="1.90074">
        <ele>325.2890625</ele>
        <time>2012-06-07T20:32:01Z</time>
      </trkpt>
      <trkpt lat="44.54784" lon="1.90001">
        <ele>329.9140625</ele>
        <time>2012-06-07T20:32:21Z</time>
      </trkpt>
      <trkpt lat="44.5477" lon="1.8995">
        <ele>334.703125</ele>
        <time>2012-06-07T20:32:41Z</time>
      </trkpt>
      <trkpt lat="44.54689" lon="1.89918">
        <ele>343.61328125</ele>
        <time>2012-06-07T20:33:01Z</time>
      </trkpt>
      <trkpt lat="44.54516" lon="1.89874">
        <ele>355.57421875</ele>
        <time>2012-06-07T20:33:21Z</time>
      </trkpt>
      <trkpt lat="44.54316" lon="1.89864">
        <ele>362.734375</ele>
        <time>2012-06-07T20:33:41Z</time>
      </trkpt>
      <trkpt lat="44.54353" lon="1.89777">
        <ele>364.515625</ele>
        <time>2012-06-07T20:34:01Z</time>
      </trkpt>
      <trkpt lat="44.54328" lon="1.89721">
        <ele>362.125</ele>
        <time>2012-06-07T20:34:21Z</time>
      </trkpt>
      <trkpt lat="44.54283" lon="1.89637">
        <ele>360.1171875</ele>
        <time>2012-06-07T20:34:41Z</time>
      </trkpt>
      <trkpt lat="44.54274" lon="1.89525">
        <ele>365.453125</ele>
        <time>2012-06-07T20:35:01Z</time>
      </trkpt>
      <trkpt lat="44.54205" lon="1.8948">
        <ele>363.15625</ele>
        <time>2012-06-07T20:35:21Z</time>
      </trkpt>
      <trkpt lat="44.54183" lon="1.89433">
        <ele>359.6484375</ele>
        <time>2012-06-07T20:35:41Z</time>
      </trkpt>
      <trkpt lat="44.54168" lon="1.89343">
        <ele>358.67578125</ele>
        <time>2012-06-07T20:36:01Z</time>
      </trkpt>
      <trkpt lat="44.54149" lon="1.89317">
        <ele>358.41015625</ele>
        <time>2012-06-07T20:36:21Z</time>
      </trkpt>
      <trkpt lat="44.5402" lon="1.89269">
        <ele>362.66015625</ele>
        <time>2012-06-07T20:36:41Z</time>
      </trkpt>
      <trkpt lat="44.53939" lon="1.8925">
        <ele>366.421875</ele>
        <time>2012-06-07T20:37:01Z</time>
      </trkpt>
      <trkpt lat="44.53873" lon="1.89263">
        <ele>368.96484375</ele>
        <time>2012-06-07T20:37:21Z</time>
      </trkpt>
      <trkpt lat="44.53838" lon="1.89262">
        <ele>370.55859375</ele>
        <time>2012-06-07T20:37:41Z</time>
      </trkpt>
      <trkpt lat="44.53842" lon="1.89217">
        <ele>375.1171875</ele>
        <time>2012-06-07T20:38:01Z</time>
      </trkpt>
      <trkpt lat="44.53738" lon="1.88965">
        <ele>394.125</ele>
        <time>2012-06-07T20:38:21Z</time>
      </trkpt>
      <trkpt lat="44.53735" lon="1.88905">
        <ele>396.38671875</ele>
        <time>2012-06-07T20:38:41Z</time>
      </trkpt>
      <trkpt lat="44.53769" lon="1.88819">
        <ele>399.37109375</ele>
        <time>2012-06-07T20:39:01Z</time>
      </trkpt>
      <trkpt lat="44.53794" lon="1.88663">
        <ele>398.46484375</ele>
        <time>2012-06-07T20:39:21Z</time>
      </trkpt>
      <trkpt lat="44.53771" lon="1.88702">
        <ele>398.1015625</ele>
        <time>2012-06-07T20:39:41Z</time>
      </trkpt>
      <trkpt lat="44.53731" lon="1.88725">
        <ele>395.28125</ele>
        <time>2012-06-07T20:40:01Z</time>
      </trkpt>
      <trkpt lat="44.53697" lon="1.88728">
        <ele>391.7734375</ele>
        <time>2012-06-07T20:40:21Z</time>
      </trkpt>
      <trkpt lat="44.53704" lon="1.88658">
        <ele>389.91796875</ele>
        <time>2012-06-07T20:40:41Z</time>
      </trkpt>
      <trkpt lat="44.53666" lon="1.88618">
        <ele>383.15234375</ele>
        <time>2012-06-07T20:41:01Z</time>
      </trkpt>
      <trkpt lat="44.53641" lon="1.88557">
        <ele>377.6796875</ele>
        <time>2012-06-07T20:41:21Z</time>
      </trkpt>
      <trkpt lat="44.53664" lon="1.88536">
        <ele>379.17578125</ele>
        <time>2012-06-07T20:41:41Z</time>
      </trkpt>
      <trkpt lat="44.53668" lon="1.88531">
        <ele>379.44140625</ele>
        <time>2012-06-07T20:42:01Z</time>
      </trkpt>
      <trkpt lat="44.53689" lon="1.88491">
        <ele>380.171875</ele>
        <time>2012-06-07T20:42:21Z</time>
      </trkpt>
      <trkpt lat="44.53725" lon="1.88389">
        <ele>381.10546875</ele>
        <time>2012-06-07T20:42:41Z</time>
      </trkpt>
      <trkpt lat="44.53729" lon="1.88356">
        <ele>380.71875</ele>
        <time>2012-06-07T20:43:01Z</time>
      </trkpt>
      <trkpt lat="44.53719" lon="1.88264">
        <ele>377.98046875</ele>
        <time>2012-06-07T20:43:21Z</time>
      </trkpt>
      <trkpt lat="44.53735" lon="1.88161">
        <ele>373.375</ele>
        <time>2012-06-07T20:43:41Z</time>
      </trkpt>
      <trkpt lat="44.53843" lon="1.87999">
        <ele>384.26953125</ele>
        <time>2012-06-07T20:44:01Z</time>
      </trkpt>
      <trkpt lat="44.5386" lon="1.8791">
        <ele>387.28515625</ele>
        <time>2012-06-07T20:44:21Z</time>
      </trkpt>
      <trkpt lat="44.53845" lon="1.87775">
        <ele>387.109375</ele>
        <time>2012-06-07T20:44:41Z</time>
      </trkpt>
      <trkpt lat="44.53801" lon="1.8765">
        <ele>383.97265625</ele>
        <time>2012-06-07T20:45:01Z</time>
      </trkpt>
      <trkpt lat="44.53774" lon="1.87561">
        <ele>385.30859375</ele>
        <time>2012-06-07T20:45:21Z</time>
      </trkpt>
      <trkpt lat="44.53749" lon="1.87372">
        <ele>388.68359375</ele>
        <time>2012-06-07T20:45:41Z</time>
      </trkpt>
      <trkpt lat="44.537" lon="1.87269">
        <ele>389.7265625</ele>
        <time>2012-06-07T20:46:01Z</time>
      </trkpt>
      <trkpt lat="44.53637" lon="1.86976">
        <ele>388.765625</ele>
        <time>2012-06-07T20:46:21Z</time>
      </trkpt>
      <trkpt lat="44.53597" lon="1.86922">
        <ele>389</ele>
        <time>2012-06-07T20:46:41Z</time>
      </trkpt>
      <trkpt lat="44.53554" lon="1.86783">
        <ele>384.36328125</ele>
        <time>2012-06-07T20:47:01Z</time>
      </trkpt>
      <trkpt lat="44.53547" lon="1.86715">
        <ele>380.3984375</ele>
        <time>2012-06-07T20:47:21Z</time>
      </trkpt>
      <trkpt lat="44.53495" lon="1.86586">
        <ele>379.07421875</ele>
        <time>2012-06-07T20:47:41Z</time>
      </trkpt>
      <trkpt lat="44.5348" lon="1.86529">
        <ele>381.00390625</ele>
        <time>2012-06-07T20:48:01Z</time>
      </trkpt>
      <trkpt lat="44.53399" lon="1.86499">
        <ele>375.28125</ele>
        <time>2012-06-07T20:48:21Z</time>
      </trkpt>
      <trkpt lat="44.53254" lon="1.86477">
        <ele>363.1640625</ele>
        <time>2012-06-07T20:48:41Z</time>
      </trkpt>
      <trkpt lat="44.53167" lon="1.86488">
        <ele>358.6953125</ele>
        <time>2012-06-07T20:49:01Z</time>
      </trkpt>
      <trkpt lat="44.53047" lon="1.86529">
        <ele>349.34375</ele>
        <time>2012-06-07T20:49:21Z</time>
      </trkpt>
      <trkpt lat="44.52948" lon="1.86532">
        <ele>340.08984375</ele>
        <time>2012-06-07T20:49:41Z</time>
      </trkpt>
      <trkpt lat="44.52867" lon="1.86409">
        <ele>330.8125</ele>
        <time>2012-06-07T20:50:01Z</time>
      </trkpt>
      <trkpt lat="44.52658" lon="1.8626">
        <ele>330.640625</ele>
        <time>2012-06-07T20:50:21Z</time>
      </trkpt>
      <trkpt lat="44.52494" lon="1.862">
        <ele>321.6953125</ele>
        <time>2012-06-07T20:50:41Z</time>
      </trkpt>
      <trkpt lat="44.52383" lon="1.86148">
        <ele>314.68359375</ele>
        <time>2012-06-07T20:51:01Z</time>
      </trkpt>
      <trkpt lat="44.52333" lon="1.86137">
        <ele>311.33203125</ele>
        <time>2012-06-07T20:51:21Z</time>
      </trkpt>
      <trkpt lat="44.52287" lon="1.86114">
        <ele>305.55859375</ele>
        <time>2012-06-07T20:51:41Z</time>
      </trkpt>
      <trkpt lat="44.52242" lon="1.8607">
        <ele>303.25390625</ele>
        <time>2012-06-07T20:52:01Z</time>
      </trkpt>
      <trkpt lat="44.52218" lon="1.86033">
        <ele>305.9609375</ele>
        <time>2012-06-07T20:52:21Z</time>
      </trkpt>
      <trkpt lat="44.5218" lon="1.86028">
        <ele>306.8984375</ele>
        <time>2012-06-07T20:52:41Z</time>
      </trkpt>
      <trkpt lat="44.52083" lon="1.86027">
        <ele>306.48828125</ele>
        <time>2012-06-07T20:53:01Z</time>
      </trkpt>
      <trkpt lat="44.51991" lon="1.85974">
        <ele>309.63671875</ele>
        <time>2012-06-07T20:53:21Z</time>
      </trkpt>
      <trkpt lat="44.51932" lon="1.85964">
        <ele>311.98046875</ele>
        <time>2012-06-07T20:53:41Z</time>
      </trkpt>
      <trkpt lat="44.5183" lon="1.85964">
        <ele>312.78125</ele>
        <time>2012-06-07T20:54:01Z</time>
      </trkpt>
      <trkpt lat="44.51642" lon="1.85836">
        <ele>318.2421875</ele>
        <time>2012-06-07T20:54:21Z</time>
      </trkpt>
      <trkpt lat="44.51645" lon="1.85731">
        <ele>320.4453125</ele>
        <time>2012-06-07T20:54:41Z</time>
      </trkpt>
      <trkpt lat="44.51662" lon="1.85694">
        <ele>321.93359375</ele>
        <time>2012-06-07T20:55:01Z</time>
      </trkpt>
      <trkpt lat="44.51658" lon="1.85612">
        <ele>322.88671875</ele>
        <time>2012-06-07T20:55:21Z</time>
      </trkpt>
      <trkpt lat="44.51649" lon="1.85567">
        <ele>323.0390625</ele>
        <time>2012-06-07T20:55:41Z</time>
      </trkpt>
      <trkpt lat="44.51701" lon="1.8554">
        <ele>328.64453125</ele>
        <time>2012-06-07T20:56:01Z</time>
      </trkpt>
      <trkpt lat="44.51716" lon="1.85415">
        <ele>330.8359375</ele>
        <time>2012-06-07T20:56:21Z</time>
      </trkpt>
      <trkpt lat="44.51707" lon="1.85377">
        <ele>330.203125</ele>
        <time>2012-06-07T20:56:41Z</time>
      </trkpt>
      <trkpt lat="44.51726" lon="1.85354">
        <ele>331.578125</ele>
        <time>2012-06-07T20:57:01Z</time>
      </trkpt>
      <trkpt lat="44.51823" lon="1.85283">
        <ele>335</ele>
        <time>2012-06-07T20:57:21Z</time>
      </trkpt>
      <trkpt lat="44.51911" lon="1.85166">
        <ele>330.546875</ele>
        <time>2012-06-07T20:57:41Z</time>
      </trkpt>
      <trkpt lat="44.51929" lon="1.85118">
        <ele>331.59375</ele>
        <time>2012-06-07T20:58:01Z</time>
      </trkpt>
      <trkpt lat="44.51952" lon="1.85088">
        <ele>332.5625</ele>
        <time>2012-06-07T20:58:21Z</time>
      </trkpt>
      <trkpt lat="44.51998" lon="1.84939">
        <ele>341.86328125</ele>
        <time>2012-06-07T20:58:41Z</time>
      </trkpt>
      <trkpt lat="44.52006" lon="1.84845">
        <ele>348.05078125</ele>
        <time>2012-06-07T20:59:01Z</time>
      </trkpt>
      <trkpt lat="44.52017" lon="1.84787">
        <ele>350.87109375</ele>
        <time>2012-06-07T20:59:21Z</time>
      </trkpt>
      <trkpt lat="44.52127" lon="1.84688">
        <ele>367.0625</ele>
        <time>2012-06-07T20:59:41Z</time>
      </trkpt>
      <trkpt lat="44.52137" lon="1.84666">
        <ele>368.75</ele>
        <time>2012-06-07T21:00:01Z</time>
      </trkpt>
      <trkpt lat="44.52055" lon="1.845">
        <ele>366.76171875</ele>
        <time>2012-06-07T21:00:21Z</time>
      </trkpt>
      <trkpt lat="44.52009" lon="1.84456">
        <ele>371.015625</ele>
        <time>2012-06-07T21:00:41Z</time>
      </trkpt>
      <trkpt lat="44.51855" lon="1.84257">
        <ele>378.83984375</ele>
        <time>2012-06-07T21:01:01Z</time>
      </trkpt>
      <trkpt lat="44.51801" lon="1.84213">
        <ele>380.70703125</ele>
        <time>2012-06-07T21:01:21Z</time>
      </trkpt>
      <trkpt lat="44.51641" lon="1.83997">
        <ele>369.203125</ele>
        <time>2012-06-07T21:01:41Z</time>
      </trkpt>
      <trkpt lat="44.51635" lon="1.83849">
        <ele>365.08203125</ele>
        <time>2012-06-07T21:02:01Z</time>
      </trkpt>
      <trkpt lat="44.51595" lon="1.83691">
        <ele>363.7890625</ele>
        <time>2012-06-07T21:02:21Z</time>
      </trkpt>
      <trkpt lat="44.51582" lon="1.83544">
        <ele>360.015625</ele>
        <time>2012-06-07T21:02:41Z</time>
      </trkpt>
      <trkpt lat="44.51436" lon="1.83145">
        <ele>343.125</ele>
        <time>2012-06-07T21:03:01Z</time>
      </trkpt>
      <trkpt lat="44.51421" lon="1.83088">
        <ele>335.10546875</ele>
        <time>2012-06-07T21:03:21Z</time>
      </trkpt>
      <trkpt lat="44.51403" lon="1.82972">
        <ele>324.01171875</ele>
        <time>2012-06-07T21:03:41Z</time>
      </trkpt>
      <trkpt lat="44.51387" lon="1.82912">
        <ele>320.75390625</ele>
        <time>2012-06-07T21:04:01Z</time>
      </trkpt>
      <trkpt lat="44.51359" lon="1.82864">
        <ele>316.8671875</ele>
        <time>2012-06-07T21:04:21Z</time>
      </trkpt>
      <trkpt lat="44.51326" lon="1.82883">
        <ele>316.84765625</ele>
        <time>2012-06-07T21:04:41Z</time>
      </trkpt>
      <trkpt lat="44.51294" lon="1.82881">
        <ele>316.39453125</ele>
        <time>2012-06-07T21:05:01Z</time>
      </trkpt>
      <trkpt lat="44.51227" lon="1.82862">
        <ele>320.67578125</ele>
        <time>2012-06-07T21:05:21Z</time>
      </trkpt>
      <trkpt lat="44.51177" lon="1.82904">
        <ele>328.11328125</ele>
        <time>2012-06-07T21:05:41Z</time>
      </trkpt>
      <trkpt lat="44.51132" lon="1.82901">
        <ele>330.140625</ele>
        <time>2012-06-07T21:06:01Z</time>
      </trkpt>
      <trkpt lat="44.51033" lon="1.82957">
        <ele>338.109375</ele>
        <time>2012-06-07T21:06:21Z</time>
      </trkpt>
      <trkpt lat="44.5096" lon="1.83022">
        <ele>342.65625</ele>
        <time>2012-06-07T21:06:41Z</time>
      </trkpt>
      <trkpt lat="44.50935" lon="1.83069">
        <ele>346.57421875</ele>
        <time>2012-06-07T21:07:01Z</time>
      </trkpt>
      <trkpt lat="44.50856" lon="1.83091">
        <ele>351.3828125</ele>
        <time>2012-06-07T21:07:21Z</time>
      </trkpt>
      <trkpt lat="44.50784" lon="1.83174">
        <ele>358.51953125</ele>
        <time>2012-06-07T21:07:41Z</time>
      </trkpt>
      <trkpt lat="44.50722" lon="1.83206">
        <ele>349.90625</ele>
        <time>2012-06-07T21:08:01Z</time>
      </trkpt>
      <trkpt lat="44.5055" lon="1.83281">
        <ele>331.07421875</ele>
        <time>2012-06-07T21:08:21Z</time>
      </trkpt>
      <trkpt lat="44.50461" lon="1.83346">
        <ele>323.08984375</ele>
        <time>2012-06-07T21:08:41Z</time>
      </trkpt>
      <trkpt lat="44.50222" lon="1.83476">
        <ele>306.9140625</ele>
        <time>2012-06-07T21:09:01Z</time>
      </trkpt>
      <trkpt lat="44.50218" lon="1.83486">
        <ele>305.984375</ele>
        <time>2012-06-07T21:09:21Z</time>
      </trkpt>
      <trkpt lat="44.50175" lon="1.83502">
        <ele>305.71875</ele>
        <time>2012-06-07T21:09:41Z</time>
      </trkpt>
      <trkpt lat="44.50083" lon="1.83502">
        <ele>302.9140625</ele>
        <time>2012-06-07T21:10:01Z</time>
      </trkpt>
      <trkpt lat="44.49979" lon="1.83515">
        <ele>291.62109375</ele>
        <time>2012-06-07T21:10:21Z</time>
      </trkpt>
      <trkpt lat="44.49821" lon="1.83518">
        <ele>290.45703125</ele>
        <time>2012-06-07T21:10:41Z</time>
      </trkpt>
      <trkpt lat="44.49776" lon="1.83529">
        <ele>291.828125</ele>
        <time>2012-06-07T21:11:01Z</time>
      </trkpt>
      <trkpt lat="44.49695" lon="1.83519">
        <ele>292.87109375</ele>
        <time>2012-06-07T21:11:21Z</time>
      </trkpt>
      <trkpt lat="44.49652" lon="1.83561">
        <ele>288.4609375</ele>
        <time>2012-06-07T21:11:41Z</time>
      </trkpt>
      <trkpt lat="44.49618" lon="1.83651">
        <ele>282.53515625</ele>
        <time>2012-06-07T21:12:01Z</time>
      </trkpt>
      <trkpt lat="44.49578" lon="1.83685">
        <ele>279.54296875</ele>
        <time>2012-06-07T21:12:21Z</time>
      </trkpt>
      <trkpt lat="44.49511" lon="1.83676">
        <ele>272.62109375</ele>
        <time>2012-06-07T21:12:41Z</time>
      </trkpt>
      <trkpt lat="44.49431" lon="1.83741">
        <ele>260.23828125</ele>
        <time>2012-06-07T21:13:01Z</time>
      </trkpt>
      <trkpt lat="44.49386" lon="1.83709">
        <ele>261.26953125</ele>
        <time>2012-06-07T21:13:21Z</time>
      </trkpt>
      <trkpt lat="44.4931" lon="1.83687">
        <ele>261.1640625</ele>
        <time>2012-06-07T21:13:41Z</time>
      </trkpt>
      <trkpt lat="44.4928" lon="1.83666">
        <ele>263.375</ele>
        <time>2012-06-07T21:14:01Z</time>
      </trkpt>
      <trkpt lat="44.49233" lon="1.83659">
        <ele>252.01171875</ele>
        <time>2012-06-07T21:14:21Z</time>
      </trkpt>
      <trkpt lat="44.49182" lon="1.83628">
        <ele>254.453125</ele>
        <time>2012-06-07T21:14:41Z</time>
      </trkpt>
      <trkpt lat="44.49128" lon="1.83631">
        <ele>236.9921875</ele>
        <time>2012-06-07T21:15:01Z</time>
      </trkpt>
      <trkpt lat="44.48976" lon="1.83661">
        <ele>197.234375</ele>
        <time>2012-06-07T21:15:21Z</time>
      </trkpt>
      <trkpt lat="44.4892" lon="1.83702">
        <ele>180.6875</ele>
        <time>2012-06-07T21:15:41Z</time>
      </trkpt>
      <trkpt lat="44.48908" lon="1.83727">
        <ele>175.19140625</ele>
        <time>2012-06-07T21:16:01Z</time>
      </trkpt>
      <trkpt lat="44.48639" lon="1.83831">
        <ele>165.6484375</ele>
        <time>2012-06-07T21:16:21Z</time>
      </trkpt>
      <trkpt lat="44.48584" lon="1.83896">
        <ele>159.3046875</ele>
        <time>2012-06-07T21:16:41Z</time>
      </trkpt>
    </trkseg>
  </trk>
</gpx>